createdAt,value
2023-03-06T00:02:39.132Z,72.75
2023-03-06T00:05:26.269Z,72.25
2023-03-06T00:08:13.350Z,73.20
2023-03-06T00:11:00.964Z,72.32
2023-03-06T00:13:48.446Z,73.29
2023-03-06T00:16:35.480Z,73.10
2023-03-06T00:19:22.366Z,73.19
2023-03-06T00:22:09.737Z,72.47
2023-03-06T00:24:56.818Z,73.45
2023-03-06T00:27:43.737Z,72.90
2023-03-06T00:30:34.082Z,72.36
2023-03-06T00:33:21.561Z,72.47
2023-03-06T00:36:09.130Z,72.15
2023-03-06T00:38:56.084Z,73.46
2023-03-06T00:41:46.977Z,73.31
2023-03-06T00:44:34.115Z,72.85
2023-03-06T00:47:22.208Z,72.11
2023-03-06T00:50:09.933Z,72.44
2023-03-06T00:52:57.035Z,72.41
2023-03-06T00:55:44.934Z,72.81
2023-03-06T00:58:32.190Z,73.00
2023-03-06T01:01:19.182Z,72.13
2023-03-06T01:04:06.347Z,73.30
2023-03-06T01:06:53.566Z,73.06
2023-03-06T01:09:40.996Z,73.04
2023-03-06T01:12:28.297Z,73.09
2023-03-06T01:15:15.375Z,72.32
2023-03-06T01:18:02.427Z,72.62
2023-03-06T01:20:49.760Z,72.80
2023-03-06T01:23:36.783Z,72.00
2023-03-06T01:26:24.241Z,72.83
2023-03-06T01:29:11.267Z,73.23
2023-03-06T01:31:58.685Z,72.27
2023-03-06T01:34:45.913Z,72.17
2023-03-06T01:37:33.103Z,73.08
2023-03-06T01:40:19.888Z,72.86
2023-03-06T01:43:09.516Z,72.98
2023-03-06T01:45:56.328Z,73.26
2023-03-06T01:48:44.721Z,72.88
2023-03-06T01:51:32.178Z,73.24
2023-03-06T01:54:22.323Z,72.50
2023-03-06T01:57:12.735Z,72.96
2023-03-06T02:00:02.708Z,73.29
2023-03-06T02:03:02.226Z,72.47
2023-03-06T02:05:49.301Z,72.13
2023-03-06T02:08:39.608Z,73.22
2023-03-06T02:11:33.955Z,72.71
2023-03-06T02:14:40.955Z,72.68
2023-03-06T02:17:30.945Z,73.08
2023-03-06T02:20:46.014Z,73.25
2023-03-06T02:24:13.101Z,73.28
2023-03-06T02:27:02.330Z,71.96
2023-03-06T02:29:50.808Z,73.20
2023-03-06T02:32:37.853Z,72.78
2023-03-06T02:35:25.115Z,73.15
2023-03-06T02:38:12.956Z,72.68
2023-03-06T02:41:03.523Z,72.69
2023-03-06T02:43:54.242Z,72.78
2023-03-06T02:46:41.341Z,72.73
2023-03-06T02:49:28.282Z,72.39
2023-03-06T02:52:15.270Z,72.51
2023-03-06T02:55:02.343Z,72.98
2023-03-06T02:57:49.215Z,72.74
2023-03-06T03:00:37.407Z,72.17
2023-03-06T03:03:26.947Z,72.98
2023-03-06T03:06:13.962Z,72.05
2023-03-06T03:09:00.954Z,72.05
2023-03-06T03:11:48.926Z,72.17
2023-03-06T03:14:36.252Z,72.03
2023-03-06T03:17:24.083Z,71.60
2023-03-06T03:20:11.822Z,72.09
2023-03-06T03:22:59.100Z,72.88
2023-03-06T03:25:46.849Z,71.77
2023-03-06T03:28:34.059Z,72.07
2023-03-06T03:31:25.399Z,72.06
2023-03-06T03:34:12.546Z,72.48
2023-03-06T03:37:02.699Z,71.96
2023-03-06T03:39:49.827Z,72.08
2023-03-06T03:42:37.069Z,71.73
2023-03-06T03:45:25.754Z,71.77
2023-03-06T03:48:12.858Z,72.14
2023-03-06T03:50:59.913Z,71.54
2023-03-06T03:53:47.099Z,72.73
2023-03-06T03:56:38.529Z,72.44
2023-03-06T03:59:31.024Z,71.74
2023-03-06T04:02:30.974Z,72.23
2023-03-06T04:05:26.719Z,72.69
2023-03-06T04:08:13.751Z,72.45
2023-03-06T04:11:03.506Z,72.13
2023-03-06T04:13:52.212Z,71.85
2023-03-06T04:16:39.256Z,71.99
2023-03-06T04:19:27.040Z,72.63
2023-03-06T04:22:13.929Z,72.60
2023-03-06T04:25:00.968Z,72.12
2023-03-06T04:27:47.954Z,72.06
2023-03-06T04:30:35.097Z,71.65
2023-03-06T04:33:22.709Z,72.83
2023-03-06T04:36:09.916Z,71.83
2023-03-06T04:38:56.940Z,72.53
2023-03-06T04:41:44.449Z,72.58
2023-03-06T04:44:31.535Z,71.68
2023-03-06T04:47:19.337Z,71.72
2023-03-06T04:50:06.704Z,72.92
2023-03-06T04:52:53.886Z,72.13
2023-03-06T04:55:40.997Z,72.72
2023-03-06T04:58:28.171Z,71.53
2023-03-06T05:01:15.578Z,72.27
2023-03-06T05:04:02.606Z,71.75
2023-03-06T05:06:49.436Z,72.71
2023-03-06T05:09:38.299Z,72.47
2023-03-06T05:12:26.689Z,72.00
2023-03-06T05:15:13.710Z,72.57
2023-03-06T05:18:00.745Z,72.17
2023-03-06T05:20:47.603Z,72.08
2023-03-06T05:23:34.720Z,72.69
2023-03-06T05:26:24.866Z,72.59
2023-03-06T05:29:11.821Z,72.76
2023-03-06T05:31:58.817Z,72.11
2023-03-06T05:34:45.698Z,71.97
2023-03-06T05:37:32.712Z,72.43
2023-03-06T05:40:20.383Z,72.18
2023-03-06T05:43:07.403Z,72.43
2023-03-06T05:45:55.657Z,72.76
2023-03-06T05:48:42.918Z,72.55
2023-03-06T05:51:30.905Z,71.88
2023-03-06T05:54:18.005Z,71.84
2023-03-06T05:57:04.954Z,71.91
2023-03-06T05:59:52.677Z,71.94
2023-03-06T06:02:39.856Z,72.61
2023-03-06T06:05:27.568Z,72.51
2023-03-06T06:08:14.581Z,71.95
2023-03-06T06:11:01.592Z,72.47
2023-03-06T06:13:48.469Z,72.25
2023-03-06T06:16:36.645Z,71.97
2023-03-06T06:19:23.683Z,72.48
2023-03-06T06:22:14.110Z,72.42
2023-03-06T06:25:01.137Z,72.23
2023-03-06T06:27:48.086Z,72.75
2023-03-06T06:30:35.110Z,71.92
2023-03-06T06:33:22.009Z,72.94
2023-03-06T06:36:09.143Z,72.99
2023-03-06T06:38:56.132Z,73.06
2023-03-06T06:41:59.423Z,72.19
2023-03-06T06:44:50.664Z,73.18
2023-03-06T06:47:37.635Z,72.18
2023-03-06T06:50:24.894Z,72.21
2023-03-06T06:53:11.814Z,72.95
2023-03-06T06:55:58.781Z,73.01
2023-03-06T06:58:46.506Z,72.17
2023-03-06T07:01:34.147Z,72.23
2023-03-06T07:04:21.140Z,72.82
2023-03-06T07:07:08.399Z,72.41
2023-03-06T07:09:55.394Z,73.13
2023-03-06T07:12:42.362Z,72.84
2023-03-06T07:15:32.172Z,72.28
2023-03-06T07:18:19.077Z,73.18
2023-03-06T07:21:05.986Z,72.61
2023-03-06T07:23:53.050Z,72.52
2023-03-06T07:26:39.971Z,73.14
2023-03-06T07:29:26.879Z,72.93
2023-03-06T07:32:13.779Z,72.72
2023-03-06T07:35:19.006Z,72.57
2023-03-06T07:38:06.906Z,72.50
2023-03-06T07:40:53.949Z,72.39
2023-03-06T07:43:40.976Z,72.18
2023-03-06T07:46:29.176Z,72.67
2023-03-06T07:49:16.169Z,73.38
2023-03-06T07:52:04.046Z,72.77
2023-03-06T07:54:50.861Z,72.87
2023-03-06T07:57:37.819Z,72.95
2023-03-06T08:00:26.603Z,72.61
2023-03-06T08:03:13.611Z,72.38
2023-03-06T08:06:01.005Z,72.57
2023-03-06T08:08:47.880Z,72.36
2023-03-06T08:11:37.806Z,73.30
2023-03-06T08:14:24.919Z,72.92
2023-03-06T08:17:11.954Z,72.49
2023-03-06T08:19:58.926Z,72.64
2023-03-06T08:22:45.782Z,72.31
2023-03-06T08:25:35.926Z,72.53
2023-03-06T08:28:23.736Z,73.18
2023-03-06T08:31:10.631Z,73.11
2023-03-06T08:33:58.396Z,72.66
2023-03-06T08:36:45.840Z,72.65
2023-03-06T08:39:33.069Z,72.97
2023-03-06T08:42:19.950Z,72.96
2023-03-06T08:45:06.941Z,73.30
2023-03-06T08:47:55.004Z,72.44
2023-03-06T08:50:41.999Z,72.63
2023-03-06T08:53:42.047Z,72.15
2023-03-06T08:56:42.542Z,73.08
2023-03-06T08:59:31.370Z,71.91
2023-03-06T09:02:18.278Z,71.71
2023-03-06T09:05:05.181Z,72.44
2023-03-06T09:07:52.058Z,71.84
2023-03-06T09:10:42.398Z,72.90
2023-03-06T09:13:29.472Z,73.16
2023-03-06T09:16:16.588Z,73.04
2023-03-06T09:19:03.611Z,71.70
2023-03-06T09:21:50.551Z,72.65
2023-03-06T09:24:37.372Z,72.00
2023-03-06T09:27:24.376Z,72.59
2023-03-06T09:30:11.471Z,72.29
2023-03-06T09:32:58.436Z,72.56
2023-03-06T09:35:45.395Z,72.64
2023-03-06T09:38:32.423Z,73.14
2023-03-06T09:41:19.331Z,71.87
2023-03-06T09:44:12.384Z,73.13
2023-03-06T09:47:17.213Z,72.54
2023-03-06T09:50:27.730Z,72.69
2023-03-06T09:53:39.806Z,72.59
2023-03-06T09:56:39.644Z,73.11
2023-03-06T09:59:39.910Z,73.01
2023-03-06T10:02:40.300Z,72.25
2023-03-06T10:05:33.730Z,72.02
2023-03-06T10:08:26.026Z,72.15
2023-03-06T10:11:25.811Z,72.76
2023-03-06T10:14:49.541Z,71.53
2023-03-06T10:17:42.497Z,71.49
2023-03-06T10:20:36.865Z,72.24
2023-03-06T10:23:36.176Z,72.10
2023-03-06T10:26:36.047Z,72.03
2023-03-06T10:29:32.158Z,71.84
2023-03-06T10:32:46.115Z,72.49
2023-03-06T10:35:39.397Z,72.42
2023-03-06T10:38:41.189Z,71.29
2023-03-06T10:41:30.979Z,71.72
2023-03-06T10:44:21.064Z,71.45
2023-03-06T10:47:11.081Z,71.31
2023-03-06T10:49:58.507Z,71.58
2023-03-06T10:52:49.671Z,71.99
2023-03-06T10:55:47.822Z,71.83
2023-03-06T10:58:59.150Z,70.98
2023-03-06T11:01:46.074Z,71.76
2023-03-06T11:04:51.347Z,71.39
2023-03-06T11:07:43.962Z,71.02
2023-03-06T11:10:39.266Z,70.92
2023-03-06T11:13:41.675Z,71.44
2023-03-06T11:16:46.532Z,71.16
2023-03-06T11:19:44.094Z,71.19
2023-03-06T11:22:38.930Z,70.96
2023-03-06T11:25:30.282Z,71.26
2023-03-06T11:28:23.468Z,70.81
2023-03-06T11:31:16.760Z,70.22
2023-03-06T11:34:15.220Z,70.48
2023-03-06T11:37:17.240Z,70.00
2023-03-06T11:40:12.888Z,70.22
2023-03-06T11:43:29.799Z,70.23
2023-03-06T11:46:23.418Z,70.18
2023-03-06T11:49:34.053Z,70.08
2023-03-06T11:52:35.133Z,69.69
2023-03-06T11:55:22.450Z,69.99
2023-03-06T11:58:46.951Z,69.57
2023-03-06T12:01:59.016Z,69.45
2023-03-06T12:04:55.515Z,69.51
2023-03-06T12:08:07.064Z,69.20
2023-03-06T12:11:10.211Z,69.04
2023-03-06T12:14:17.109Z,68.91
2023-03-06T12:17:09.932Z,68.85
2023-03-06T12:20:13.175Z,68.56
2023-03-06T12:23:15.261Z,68.51
2023-03-06T12:26:15.747Z,67.87
2023-03-06T12:29:23.433Z,68.09
2023-03-06T12:32:22.625Z,68.07
2023-03-06T12:35:31.606Z,67.80
2023-03-06T12:38:27.660Z,68.03
2023-03-06T12:41:36.307Z,67.44
2023-03-06T12:44:23.589Z,67.25
2023-03-06T12:47:31.653Z,67.25
2023-03-06T12:50:30.206Z,67.20
2023-03-06T12:53:27.351Z,67.34
2023-03-06T12:56:15.972Z,66.89
2023-03-06T12:59:11.145Z,66.55
2023-03-06T13:02:37.332Z,66.37
2023-03-06T13:05:47.265Z,66.54
2023-03-06T13:08:46.055Z,66.61
2023-03-06T13:11:54.222Z,66.77
2023-03-06T13:14:54.784Z,66.04
2023-03-06T13:17:45.152Z,66.12
2023-03-06T13:20:35.336Z,65.49
2023-03-06T13:23:50.540Z,65.47
2023-03-06T13:26:57.564Z,64.99
2023-03-06T13:29:56.732Z,65.02
2023-03-06T13:32:50.306Z,65.58
2023-03-06T13:36:19.288Z,65.29
2023-03-06T13:39:09.332Z,65.42
2023-03-06T13:42:20.009Z,65.07
2023-03-06T13:45:09.133Z,65.02
2023-03-06T13:48:24.924Z,64.03
2023-03-06T13:51:12.221Z,64.16
2023-03-06T13:54:29.965Z,64.84
2023-03-06T13:57:28.791Z,63.71
2023-03-06T14:00:36.126Z,63.32
2023-03-06T14:03:48.710Z,64.11
2023-03-06T14:06:54.145Z,63.98
2023-03-06T14:09:48.512Z,63.79
2023-03-06T14:13:21.795Z,62.76
2023-03-06T14:16:14.850Z,63.57
2023-03-06T14:19:06.190Z,62.78
2023-03-06T14:22:09.068Z,63.14
2023-03-06T14:25:03.556Z,62.87
2023-03-06T14:28:14.285Z,62.10
2023-03-06T14:31:10.303Z,62.89
2023-03-06T14:34:19.110Z,61.98
2023-03-06T14:37:11.366Z,61.95
2023-03-06T14:40:00.445Z,62.25
2023-03-06T14:42:49.577Z,61.87
2023-03-06T14:45:38.799Z,62.23
2023-03-06T14:48:26.381Z,62.04
2023-03-06T14:51:17.318Z,62.06
2023-03-06T14:54:06.688Z,61.89
2023-03-06T14:56:59.910Z,62.16
2023-03-06T14:59:50.718Z,61.86
2023-03-06T15:02:42.578Z,61.35
2023-03-06T15:05:50.391Z,61.89
2023-03-06T15:08:47.891Z,61.81
2023-03-06T15:11:34.860Z,61.69
2023-03-06T15:14:23.742Z,61.84
2023-03-06T15:17:11.015Z,61.89
2023-03-06T15:20:02.954Z,61.81
2023-03-06T15:22:58.481Z,61.58
2023-03-06T15:25:48.462Z,61.91
2023-03-06T15:28:50.262Z,61.90
2023-03-06T15:31:44.935Z,62.02
2023-03-06T15:34:36.526Z,61.96
2023-03-06T15:37:39.790Z,62.26
2023-03-06T15:40:27.613Z,62.34
2023-03-06T15:43:14.553Z,61.80
2023-03-06T15:46:01.607Z,62.31
2023-03-06T15:48:48.756Z,62.33
2023-03-06T15:51:35.645Z,62.65
2023-03-06T15:54:22.452Z,62.79
2023-03-06T15:57:10.259Z,62.48
2023-03-06T15:59:43.091Z,62.39
2023-03-06T16:02:21.342Z,62.78
2023-03-06T16:04:49.325Z,62.86
2023-03-06T16:07:16.520Z,62.45
2023-03-06T16:09:44.135Z,62.49
2023-03-06T16:12:19.115Z,62.89
2023-03-06T16:14:47.754Z,62.94
2023-03-06T16:17:15.484Z,62.64
2023-03-06T16:19:43.252Z,62.44
2023-03-06T16:22:10.571Z,62.68
2023-03-06T16:24:37.648Z,62.40
2023-03-06T16:27:05.110Z,62.62
2023-03-06T16:29:32.294Z,62.55
2023-03-06T16:32:01.836Z,62.73
2023-03-06T16:34:29.053Z,62.79
2023-03-06T16:36:56.172Z,63.27
2023-03-06T16:39:23.894Z,62.32
2023-03-06T16:41:51.522Z,63.49
2023-03-06T16:44:19.738Z,62.41
2023-03-06T16:46:49.440Z,62.60
2023-03-06T16:49:22.010Z,63.10
2023-03-06T16:51:49.517Z,63.54
2023-03-06T16:54:16.775Z,63.08
2023-03-06T16:56:44.392Z,63.64
2023-03-06T16:59:11.941Z,63.41
2023-03-06T17:01:42.647Z,63.01
2023-03-06T17:04:09.899Z,62.92
2023-03-06T17:06:36.812Z,63.67
2023-03-06T17:09:04.645Z,63.89
2023-03-06T17:11:31.855Z,63.66
2023-03-06T17:13:58.765Z,62.94
2023-03-06T17:16:25.797Z,63.15
2023-03-06T17:18:54.658Z,64.10
2023-03-06T17:21:26.589Z,63.12
2023-03-06T17:23:53.597Z,62.93
2023-03-06T17:26:20.468Z,64.04
2023-03-06T17:28:47.762Z,62.82
2023-03-06T17:31:18.091Z,64.29
2023-03-06T17:33:45.631Z,62.93
2023-03-06T17:36:14.585Z,63.54
2023-03-06T17:38:42.335Z,63.85
2023-03-06T17:41:11.000Z,64.28
2023-03-06T17:43:38.936Z,63.71
2023-03-06T17:46:08.606Z,63.89
2023-03-06T17:48:35.993Z,64.56
2023-03-06T17:51:03.619Z,64.33
2023-03-06T17:53:31.638Z,63.33
2023-03-06T17:55:59.035Z,64.59
2023-03-06T17:58:27.271Z,63.51
2023-03-06T18:00:54.357Z,63.88
2023-03-06T18:03:21.621Z,63.52
2023-03-06T18:05:57.801Z,63.92
2023-03-06T18:08:24.788Z,64.02
2023-03-06T18:10:51.863Z,63.79
2023-03-06T18:13:18.763Z,63.99
2023-03-06T18:15:45.791Z,63.81
2023-03-06T18:18:12.705Z,63.41
2023-03-06T18:20:44.275Z,64.32
2023-03-06T18:23:12.163Z,63.91
2023-03-06T18:25:39.075Z,64.80
2023-03-06T18:28:06.171Z,64.79
2023-03-06T18:30:37.362Z,63.95
2023-03-06T18:33:04.761Z,64.04
2023-03-06T18:35:31.653Z,64.46
2023-03-06T18:37:59.107Z,64.04
2023-03-06T18:40:26.070Z,64.43
2023-03-06T18:42:54.042Z,64.97
2023-03-06T18:45:21.382Z,64.28
2023-03-06T18:47:48.230Z,64.46
2023-03-06T18:50:17.597Z,64.14
2023-03-06T18:52:44.880Z,64.21
2023-03-06T18:55:12.846Z,64.39
2023-03-06T18:57:40.122Z,64.68
2023-03-06T19:00:08.663Z,64.55
2023-03-06T19:02:36.025Z,64.51
2023-03-06T19:05:03.053Z,64.43
2023-03-06T19:07:30.037Z,64.89
2023-03-06T19:09:56.932Z,65.16
2023-03-06T19:12:24.052Z,64.39
2023-03-06T19:14:51.044Z,64.58
2023-03-06T19:17:17.903Z,64.82
2023-03-06T19:19:45.007Z,64.87
2023-03-06T19:22:12.086Z,65.11
2023-03-06T19:24:39.024Z,65.09
2023-03-06T19:27:06.126Z,64.76
2023-03-06T19:29:33.507Z,65.29
2023-03-06T19:32:00.403Z,65.51
2023-03-06T19:34:27.256Z,65.39
2023-03-06T19:36:54.236Z,64.80
2023-03-06T19:39:21.264Z,64.92
2023-03-06T19:41:48.481Z,65.56
2023-03-06T19:44:16.392Z,64.90
2023-03-06T19:46:43.680Z,65.57
2023-03-06T19:49:18.220Z,65.06
2023-03-06T19:51:45.449Z,65.23
2023-03-06T19:54:12.839Z,65.10
2023-03-06T19:56:40.400Z,65.52
2023-03-06T19:59:07.462Z,65.41
2023-03-06T20:01:34.470Z,65.62
2023-03-06T20:04:01.940Z,65.58
2023-03-06T20:06:33.780Z,65.19
2023-03-06T20:09:02.441Z,65.61
2023-03-06T20:11:30.161Z,65.16
2023-03-06T20:13:58.999Z,65.49
2023-03-06T20:16:28.049Z,65.51
2023-03-06T20:18:58.053Z,66.02
2023-03-06T20:21:26.073Z,65.42
2023-03-06T20:23:54.530Z,65.54
2023-03-06T20:26:21.630Z,65.66
2023-03-06T20:28:48.723Z,65.71
2023-03-06T20:31:26.237Z,65.59
2023-03-06T20:33:54.982Z,65.59
2023-03-06T20:36:24.566Z,65.76
2023-03-06T20:38:51.720Z,65.66
2023-03-06T20:41:24.997Z,65.76
2023-03-06T20:44:13.466Z,65.83
2023-03-06T20:47:00.705Z,65.55
2023-03-06T20:49:47.679Z,65.79
2023-03-06T20:52:34.628Z,65.80
2023-03-06T20:55:21.566Z,65.67
2023-03-06T20:58:09.928Z,65.78
2023-03-06T21:00:56.803Z,65.98
2023-03-06T21:03:44.444Z,66.01
2023-03-06T21:06:31.393Z,66.29
2023-03-06T21:09:20.018Z,65.78
2023-03-06T21:12:07.513Z,66.29
2023-03-06T21:14:54.478Z,66.03
2023-03-06T21:17:41.416Z,65.89
2023-03-06T21:20:28.826Z,66.23
2023-03-06T21:23:15.712Z,65.90
2023-03-06T21:26:12.525Z,66.28
2023-03-06T21:28:59.534Z,66.13
2023-03-06T21:31:47.409Z,66.15
2023-03-06T21:34:34.454Z,66.12
2023-03-06T21:37:21.404Z,66.38
2023-03-06T21:40:08.388Z,66.09
2023-03-06T21:42:55.363Z,66.47
2023-03-06T21:45:42.415Z,66.42
2023-03-06T21:48:29.770Z,66.01
2023-03-06T21:51:34.753Z,66.55
2023-03-06T21:54:21.981Z,66.47
2023-03-06T21:57:08.997Z,66.86
2023-03-06T21:59:56.941Z,66.43
2023-03-06T22:02:44.165Z,66.60
2023-03-06T22:05:31.114Z,66.40
2023-03-06T22:08:19.334Z,66.61
2023-03-06T22:11:06.206Z,66.87
2023-03-06T22:13:53.235Z,66.67
2023-03-06T22:16:40.322Z,66.38
2023-03-06T22:19:27.403Z,66.61
2023-03-06T22:22:14.846Z,66.61
2023-03-06T22:25:01.874Z,66.80
2023-03-06T22:27:49.533Z,66.85
2023-03-06T22:30:36.755Z,66.98
2023-03-06T22:33:23.645Z,66.58
2023-03-06T22:36:10.795Z,66.74
2023-03-06T22:39:00.273Z,66.87
2023-03-06T22:41:47.694Z,66.91
2023-03-06T22:44:37.429Z,67.39
2023-03-06T22:47:24.576Z,66.64
2023-03-06T22:50:11.400Z,67.14
2023-03-06T22:52:58.374Z,67.03
2023-03-06T22:55:45.318Z,67.16
2023-03-06T22:58:32.154Z,67.11
2023-03-06T23:01:43.313Z,66.83
2023-03-06T23:04:30.549Z,67.01
2023-03-06T23:07:17.405Z,67.12
2023-03-06T23:10:24.773Z,67.17
2023-03-06T23:13:29.943Z,67.20
2023-03-06T23:16:35.843Z,67.02
2023-03-06T23:19:41.401Z,67.06
2023-03-06T23:22:47.117Z,66.96
2023-03-06T23:25:52.552Z,66.84
2023-03-06T23:29:00.501Z,66.95
2023-03-06T23:32:07.462Z,67.18
2023-03-06T23:35:14.381Z,67.15
2023-03-06T23:38:21.274Z,66.94
2023-03-06T23:41:08.575Z,67.48
2023-03-06T23:43:55.519Z,67.27
2023-03-06T23:46:42.818Z,67.71
2023-03-06T23:49:30.017Z,67.28
2023-03-06T23:52:16.884Z,66.94
2023-03-06T23:55:03.725Z,67.37
2023-03-06T23:57:51.061Z,67.06
